sensor_id;sensor_type;location;lat;lon;timestamp;temperature;humidity
23560;DHT22;11958;50.836;4.438;2022-08-21T00:01:27;17.80;66.00
23560;DHT22;11958;50.836;4.438;2022-08-21T00:03:54;18.00;65.80
23560;DHT22;11958;50.836;4.438;2022-08-21T00:06:20;18.00;66.10
23560;DHT22;11958;50.836;4.438;2022-08-21T00:08:50;17.90;65.20
23560;DHT22;11958;50.836;4.438;2022-08-21T00:11:17;17.90;65.10
23560;DHT22;11958;50.836;4.438;2022-08-21T00:13:42;17.90;65.50
23560;DHT22;11958;50.836;4.438;2022-08-21T00:16:09;17.90;64.40
23560;DHT22;11958;50.836;4.438;2022-08-21T00:18:35;17.90;65.50
23560;DHT22;11958;50.836;4.438;2022-08-21T00:21:01;17.90;65.40
23560;DHT22;11958;50.836;4.438;2022-08-21T00:23:26;17.80;65.70
23560;DHT22;11958;50.836;4.438;2022-08-21T00:25:52;17.80;66.20
23560;DHT22;11958;50.836;4.438;2022-08-21T00:28:18;17.70;66.50
23560;DHT22;11958;50.836;4.438;2022-08-21T00:30:45;17.60;66.20
23560;DHT22;11958;50.836;4.438;2022-08-21T00:33:23;17.80;66.10
23560;DHT22;11958;50.836;4.438;2022-08-21T00:35:49;17.80;65.90
23560;DHT22;11958;50.836;4.438;2022-08-21T00:38:14;17.70;66.10
23560;DHT22;11958;50.836;4.438;2022-08-21T00:40:50;17.50;66.60
23560;DHT22;11958;50.836;4.438;2022-08-21T00:43:23;17.70;65.90
23560;DHT22;11958;50.836;4.438;2022-08-21T00:45:49;17.70;65.50
23560;DHT22;11958;50.836;4.438;2022-08-21T00:48:18;17.60;65.50
23560;DHT22;11958;50.836;4.438;2022-08-21T00:50:52;17.50;65.80
23560;DHT22;11958;50.836;4.438;2022-08-21T00:53:19;17.70;65.90
23560;DHT22;11958;50.836;4.438;2022-08-21T00:55:45;17.70;66.30
23560;DHT22;11958;50.836;4.438;2022-08-21T00:58:13;17.50;65.90
23560;DHT22;11958;50.836;4.438;2022-08-21T01:00:42;17.50;66.40
23560;DHT22;11958;50.836;4.438;2022-08-21T01:03:17;17.60;65.70
23560;DHT22;11958;50.836;4.438;2022-08-21T01:05:44;17.40;66.10
23560;DHT22;11958;50.836;4.438;2022-08-21T01:08:12;17.20;67.20
23560;DHT22;11958;50.836;4.438;2022-08-21T01:10:38;17.20;67.20
23560;DHT22;11958;50.836;4.438;2022-08-21T01:13:06;17.50;65.80
23560;DHT22;11958;50.836;4.438;2022-08-21T01:15:35;17.70;65.60
23560;DHT22;11958;50.836;4.438;2022-08-21T01:18:03;17.60;66.30
23560;DHT22;11958;50.836;4.438;2022-08-21T01:20:35;17.40;66.70
23560;DHT22;11958;50.836;4.438;2022-08-21T01:23:03;17.30;66.70
23560;DHT22;11958;50.836;4.438;2022-08-21T01:25:33;17.40;66.30
23560;DHT22;11958;50.836;4.438;2022-08-21T01:28:02;17.20;66.30
23560;DHT22;11958;50.836;4.438;2022-08-21T01:30:28;17.20;66.50
23560;DHT22;11958;50.836;4.438;2022-08-21T01:32:55;17.20;66.50
23560;DHT22;11958;50.836;4.438;2022-08-21T01:35:24;17.00;67.50
23560;DHT22;11958;50.836;4.438;2022-08-21T01:37:50;17.10;67.80
23560;DHT22;11958;50.836;4.438;2022-08-21T01:40:16;17.10;68.40
23560;DHT22;11958;50.836;4.438;2022-08-21T01:42:43;17.10;68.70
23560;DHT22;11958;50.836;4.438;2022-08-21T01:45:15;16.90;68.70
23560;DHT22;11958;50.836;4.438;2022-08-21T01:47:47;16.70;69.80
23560;DHT22;11958;50.836;4.438;2022-08-21T01:50:17;16.50;71.00
23560;DHT22;11958;50.836;4.438;2022-08-21T01:52:58;16.60;70.60
23560;DHT22;11958;50.836;4.438;2022-08-21T01:55:24;16.70;70.40
23560;DHT22;11958;50.836;4.438;2022-08-21T01:57:53;16.90;70.50
23560;DHT22;11958;50.836;4.438;2022-08-21T02:00:23;16.80;69.80
23560;DHT22;11958;50.836;4.438;2022-08-21T02:02:51;16.90;69.10
23560;DHT22;11958;50.836;4.438;2022-08-21T02:05:18;17.00;68.90
23560;DHT22;11958;50.836;4.438;2022-08-21T02:07:50;17.00;68.20
23560;DHT22;11958;50.836;4.438;2022-08-21T02:10:21;16.90;68.70
23560;DHT22;11958;50.836;4.438;2022-08-21T02:12:47;16.90;69.30
23560;DHT22;11958;50.836;4.438;2022-08-21T02:15:13;16.80;70.00
23560;DHT22;11958;50.836;4.438;2022-08-21T02:17:42;16.60;70.30
23560;DHT22;11958;50.836;4.438;2022-08-21T02:20:10;16.70;69.90
23560;DHT22;11958;50.836;4.438;2022-08-21T02:22:36;16.70;70.10
23560;DHT22;11958;50.836;4.438;2022-08-21T02:25:02;16.70;68.80
23560;DHT22;11958;50.836;4.438;2022-08-21T02:27:27;16.70;69.50
23560;DHT22;11958;50.836;4.438;2022-08-21T02:29:57;16.60;69.80
23560;DHT22;11958;50.836;4.438;2022-08-21T02:32:23;16.60;69.70
23560;DHT22;11958;50.836;4.438;2022-08-21T02:34:48;16.60;70.00
23560;DHT22;11958;50.836;4.438;2022-08-21T02:37:15;16.50;70.40
23560;DHT22;11958;50.836;4.438;2022-08-21T02:39:40;16.50;70.90
23560;DHT22;11958;50.836;4.438;2022-08-21T02:42:06;16.50;70.80
23560;DHT22;11958;50.836;4.438;2022-08-21T02:44:32;16.50;70.50
23560;DHT22;11958;50.836;4.438;2022-08-21T02:46:57;16.60;70.40
23560;DHT22;11958;50.836;4.438;2022-08-21T02:49:29;16.50;70.60
23560;DHT22;11958;50.836;4.438;2022-08-21T02:51:55;16.30;71.60
23560;DHT22;11958;50.836;4.438;2022-08-21T02:54:20;16.30;72.10
23560;DHT22;11958;50.836;4.438;2022-08-21T02:56:46;16.40;71.20
23560;DHT22;11958;50.836;4.438;2022-08-21T02:59:11;16.30;71.00
23560;DHT22;11958;50.836;4.438;2022-08-21T03:01:37;16.30;70.90
23560;DHT22;11958;50.836;4.438;2022-08-21T03:04:06;16.30;71.10
23560;DHT22;11958;50.836;4.438;2022-08-21T03:06:31;16.20;71.70
23560;DHT22;11958;50.836;4.438;2022-08-21T03:08:57;16.10;72.10
23560;DHT22;11958;50.836;4.438;2022-08-21T03:11:23;16.00;72.30
23560;DHT22;11958;50.836;4.438;2022-08-21T03:13:48;16.00;72.50
23560;DHT22;11958;50.836;4.438;2022-08-21T03:16:14;16.00;72.00
23560;DHT22;11958;50.836;4.438;2022-08-21T03:18:40;16.20;72.00
23560;DHT22;11958;50.836;4.438;2022-08-21T03:21:09;16.20;71.70
23560;DHT22;11958;50.836;4.438;2022-08-21T03:23:40;16.10;71.90
23560;DHT22;11958;50.836;4.438;2022-08-21T03:26:14;16.00;72.30
23560;DHT22;11958;50.836;4.438;2022-08-21T03:28:58;16.10;72.80
23560;DHT22;11958;50.836;4.438;2022-08-21T03:31:24;15.90;72.50
23560;DHT22;11958;50.836;4.438;2022-08-21T03:33:54;15.90;72.60
23560;DHT22;11958;50.836;4.438;2022-08-21T03:36:22;16.00;72.30
23560;DHT22;11958;50.836;4.438;2022-08-21T03:38:49;16.00;72.10
23560;DHT22;11958;50.836;4.438;2022-08-21T03:41:24;15.90;72.30
23560;DHT22;11958;50.836;4.438;2022-08-21T03:44:01;16.00;72.30
23560;DHT22;11958;50.836;4.438;2022-08-21T03:46:27;15.80;72.60
23560;DHT22;11958;50.836;4.438;2022-08-21T03:48:52;15.80;72.90
23560;DHT22;11958;50.836;4.438;2022-08-21T03:51:18;15.70;73.10
23560;DHT22;11958;50.836;4.438;2022-08-21T03:53:44;15.70;72.90
23560;DHT22;11958;50.836;4.438;2022-08-21T03:56:13;15.70;73.10
23560;DHT22;11958;50.836;4.438;2022-08-21T03:58:38;15.80;72.90
23560;DHT22;11958;50.836;4.438;2022-08-21T04:01:05;15.70;73.20
23560;DHT22;11958;50.836;4.438;2022-08-21T04:03:38;15.70;73.20
23560;DHT22;11958;50.836;4.438;2022-08-21T04:06:04;15.60;73.50
23560;DHT22;11958;50.836;4.438;2022-08-21T04:08:30;15.50;73.80
23560;DHT22;11958;50.836;4.438;2022-08-21T04:10:57;15.50;73.80
23560;DHT22;11958;50.836;4.438;2022-08-21T04:13:24;15.70;73.40
23560;DHT22;11958;50.836;4.438;2022-08-21T04:15:50;15.60;73.60
23560;DHT22;11958;50.836;4.438;2022-08-21T04:18:16;15.70;73.60
23560;DHT22;11958;50.836;4.438;2022-08-21T04:20:46;15.50;74.30
23560;DHT22;11958;50.836;4.438;2022-08-21T04:23:13;15.60;73.90
23560;DHT22;11958;50.836;4.438;2022-08-21T04:25:39;15.70;74.10
23560;DHT22;11958;50.836;4.438;2022-08-21T04:28:04;15.60;74.20
23560;DHT22;11958;50.836;4.438;2022-08-21T04:30:30;15.60;73.70
23560;DHT22;11958;50.836;4.438;2022-08-21T04:32:58;15.70;73.50
23560;DHT22;11958;50.836;4.438;2022-08-21T04:35:25;15.70;73.80
23560;DHT22;11958;50.836;4.438;2022-08-21T04:37:51;15.80;73.90
23560;DHT22;11958;50.836;4.438;2022-08-21T04:40:20;15.80;73.90
23560;DHT22;11958;50.836;4.438;2022-08-21T04:42:51;15.60;74.70
23560;DHT22;11958;50.836;4.438;2022-08-21T04:45:25;15.70;74.30
23560;DHT22;11958;50.836;4.438;2022-08-21T04:47:52;15.50;74.90
23560;DHT22;11958;50.836;4.438;2022-08-21T04:50:19;15.60;74.60
23560;DHT22;11958;50.836;4.438;2022-08-21T04:52:46;15.60;74.20
23560;DHT22;11958;50.836;4.438;2022-08-21T04:55:12;15.70;74.20
23560;DHT22;11958;50.836;4.438;2022-08-21T04:57:38;15.60;73.80
23560;DHT22;11958;50.836;4.438;2022-08-21T05:00:05;15.70;74.10
23560;DHT22;11958;50.836;4.438;2022-08-21T05:02:32;15.70;74.10
23560;DHT22;11958;50.836;4.438;2022-08-21T05:04:59;15.70;73.80
23560;DHT22;11958;50.836;4.438;2022-08-21T05:07:28;15.90;73.50
23560;DHT22;11958;50.836;4.438;2022-08-21T05:09:55;15.90;73.30
23560;DHT22;11958;50.836;4.438;2022-08-21T05:12:21;15.80;73.50
23560;DHT22;11958;50.836;4.438;2022-08-21T05:14:47;15.80;73.50
23560;DHT22;11958;50.836;4.438;2022-08-21T05:17:14;15.80;73.90
23560;DHT22;11958;50.836;4.438;2022-08-21T05:19:39;15.80;73.60
23560;DHT22;11958;50.836;4.438;2022-08-21T05:22:08;15.80;73.40
23560;DHT22;11958;50.836;4.438;2022-08-21T05:24:35;16.00;73.80
23560;DHT22;11958;50.836;4.438;2022-08-21T05:27:04;15.90;74.30
23560;DHT22;11958;50.836;4.438;2022-08-21T05:29:30;16.00;74.20
23560;DHT22;11958;50.836;4.438;2022-08-21T05:31:56;15.90;74.70
23560;DHT22;11958;50.836;4.438;2022-08-21T05:34:23;16.00;74.10
23560;DHT22;11958;50.836;4.438;2022-08-21T05:36:48;15.80;74.80
23560;DHT22;11958;50.836;4.438;2022-08-21T05:39:14;15.90;73.90
23560;DHT22;11958;50.836;4.438;2022-08-21T05:41:40;16.00;74.10
23560;DHT22;11958;50.836;4.438;2022-08-21T05:44:06;16.10;73.50
23560;DHT22;11958;50.836;4.438;2022-08-21T05:46:31;16.10;74.40
23560;DHT22;11958;50.836;4.438;2022-08-21T05:48:57;16.20;73.80
23560;DHT22;11958;50.836;4.438;2022-08-21T05:51:23;16.00;74.50
23560;DHT22;11958;50.836;4.438;2022-08-21T05:53:57;16.00;75.00
23560;DHT22;11958;50.836;4.438;2022-08-21T05:56:23;16.20;73.90
23560;DHT22;11958;50.836;4.438;2022-08-21T05:58:48;16.40;73.50
23560;DHT22;11958;50.836;4.438;2022-08-21T06:01:17;16.40;73.40
23560;DHT22;11958;50.836;4.438;2022-08-21T06:03:42;16.40;73.90
23560;DHT22;11958;50.836;4.438;2022-08-21T06:06:09;16.60;73.50
23560;DHT22;11958;50.836;4.438;2022-08-21T06:08:37;16.40;73.70
23560;DHT22;11958;50.836;4.438;2022-08-21T06:11:06;16.50;73.90
23560;DHT22;11958;50.836;4.438;2022-08-21T06:13:32;16.70;73.60
23560;DHT22;11958;50.836;4.438;2022-08-21T06:16:06;16.90;72.70
23560;DHT22;11958;50.836;4.438;2022-08-21T06:18:33;16.80;72.10
23560;DHT22;11958;50.836;4.438;2022-08-21T06:20:59;16.60;71.40
23560;DHT22;11958;50.836;4.438;2022-08-21T06:23:30;16.50;72.00
23560;DHT22;11958;50.836;4.438;2022-08-21T06:26:00;16.60;72.30
23560;DHT22;11958;50.836;4.438;2022-08-21T06:28:26;16.60;71.60
23560;DHT22;11958;50.836;4.438;2022-08-21T06:30:52;16.80;71.10
23560;DHT22;11958;50.836;4.438;2022-08-21T06:33:17;17.00;71.40
23560;DHT22;11958;50.836;4.438;2022-08-21T06:35:43;17.20;70.90
23560;DHT22;11958;50.836;4.438;2022-08-21T06:38:08;17.10;70.60
23560;DHT22;11958;50.836;4.438;2022-08-21T06:40:34;17.20;70.70
23560;DHT22;11958;50.836;4.438;2022-08-21T06:43:06;17.50;70.50
23560;DHT22;11958;50.836;4.438;2022-08-21T06:45:32;17.80;69.90
23560;DHT22;11958;50.836;4.438;2022-08-21T06:47:58;17.90;69.20
23560;DHT22;11958;50.836;4.438;2022-08-21T06:50:24;18.00;69.20
23560;DHT22;11958;50.836;4.438;2022-08-21T06:52:58;18.00;68.10
23560;DHT22;11958;50.836;4.438;2022-08-21T06:55:24;18.20;67.30
23560;DHT22;11958;50.836;4.438;2022-08-21T06:57:50;18.20;66.90
23560;DHT22;11958;50.836;4.438;2022-08-21T07:00:15;18.40;66.00
23560;DHT22;11958;50.836;4.438;2022-08-21T07:02:41;18.30;66.40
23560;DHT22;11958;50.836;4.438;2022-08-21T07:05:07;18.40;66.10
23560;DHT22;11958;50.836;4.438;2022-08-21T07:07:32;18.60;65.80
23560;DHT22;11958;50.836;4.438;2022-08-21T07:09:58;18.70;65.50
23560;DHT22;11958;50.836;4.438;2022-08-21T07:12:23;18.90;63.60
23560;DHT22;11958;50.836;4.438;2022-08-21T07:14:51;19.10;63.20
23560;DHT22;11958;50.836;4.438;2022-08-21T07:17:17;18.90;64.00
23560;DHT22;11958;50.836;4.438;2022-08-21T07:19:43;19.10;63.50
23560;DHT22;11958;50.836;4.438;2022-08-21T07:22:08;19.10;63.60
23560;DHT22;11958;50.836;4.438;2022-08-21T07:24:34;19.10;64.60
23560;DHT22;11958;50.836;4.438;2022-08-21T07:27:00;19.20;64.40
23560;DHT22;11958;50.836;4.438;2022-08-21T07:29:25;19.30;63.90
23560;DHT22;11958;50.836;4.438;2022-08-21T07:31:51;19.40;64.40
23560;DHT22;11958;50.836;4.438;2022-08-21T07:34:17;19.60;63.20
23560;DHT22;11958;50.836;4.438;2022-08-21T07:36:48;19.50;63.30
23560;DHT22;11958;50.836;4.438;2022-08-21T07:39:14;19.30;65.40
23560;DHT22;11958;50.836;4.438;2022-08-21T07:41:40;19.10;66.70
23560;DHT22;11958;50.836;4.438;2022-08-21T07:44:05;19.40;66.30
23560;DHT22;11958;50.836;4.438;2022-08-21T07:46:31;19.50;66.40
23560;DHT22;11958;50.836;4.438;2022-08-21T07:48:56;19.60;64.00
23560;DHT22;11958;50.836;4.438;2022-08-21T07:51:25;19.70;64.70
23560;DHT22;11958;50.836;4.438;2022-08-21T07:53:53;20.00;63.20
23560;DHT22;11958;50.836;4.438;2022-08-21T07:56:19;20.10;63.20
23560;DHT22;11958;50.836;4.438;2022-08-21T07:58:45;20.20;61.60
23560;DHT22;11958;50.836;4.438;2022-08-21T08:01:14;20.10;62.10
23560;DHT22;11958;50.836;4.438;2022-08-21T08:03:40;20.40;61.50
23560;DHT22;11958;50.836;4.438;2022-08-21T08:06:11;20.20;61.90
23560;DHT22;11958;50.836;4.438;2022-08-21T08:08:41;20.50;61.70
23560;DHT22;11958;50.836;4.438;2022-08-21T08:11:08;20.60;61.00
23560;DHT22;11958;50.836;4.438;2022-08-21T08:13:40;20.40;60.80
23560;DHT22;11958;50.836;4.438;2022-08-21T08:16:07;20.50;60.50
23560;DHT22;11958;50.836;4.438;2022-08-21T08:18:32;20.80;60.00
23560;DHT22;11958;50.836;4.438;2022-08-21T08:20:58;20.80;60.30
23560;DHT22;11958;50.836;4.438;2022-08-21T08:23:24;20.80;59.90
23560;DHT22;11958;50.836;4.438;2022-08-21T08:25:50;20.40;59.00
23560;DHT22;11958;50.836;4.438;2022-08-21T08:28:16;20.30;60.70
23560;DHT22;11958;50.836;4.438;2022-08-21T08:30:45;20.20;62.10
23560;DHT22;11958;50.836;4.438;2022-08-21T08:33:14;20.10;60.50
23560;DHT22;11958;50.836;4.438;2022-08-21T08:35:45;20.40;60.80
23560;DHT22;11958;50.836;4.438;2022-08-21T08:38:11;20.90;59.10
23560;DHT22;11958;50.836;4.438;2022-08-21T08:43:53;20.70;59.10
23560;DHT22;11958;50.836;4.438;2022-08-21T08:46:21;20.90;59.10
23560;DHT22;11958;50.836;4.438;2022-08-21T08:49:01;20.90;58.90
23560;DHT22;11958;50.836;4.438;2022-08-21T08:51:55;21.40;56.30
23560;DHT22;11958;50.836;4.438;2022-08-21T08:54:37;20.90;57.40
23560;DHT22;11958;50.836;4.438;2022-08-21T08:57:11;20.70;59.50
23560;DHT22;11958;50.836;4.438;2022-08-21T08:59:56;21.00;57.50
23560;DHT22;11958;50.836;4.438;2022-08-21T09:02:42;21.10;57.00
23560;DHT22;11958;50.836;4.438;2022-08-21T09:05:29;21.10;58.40
23560;DHT22;11958;50.836;4.438;2022-08-21T09:13:21;21.30;57.00
23560;DHT22;11958;50.836;4.438;2022-08-21T09:16:02;21.40;56.90
23560;DHT22;11958;50.836;4.438;2022-08-21T09:19:02;21.90;55.60
23560;DHT22;11958;50.836;4.438;2022-08-21T09:21:38;21.80;55.40
23560;DHT22;11958;50.836;4.438;2022-08-21T09:24:22;21.90;53.30
23560;DHT22;11958;50.836;4.438;2022-08-21T09:27:14;21.80;52.70
23560;DHT22;11958;50.836;4.438;2022-08-21T09:29:43;21.90;52.10
23560;DHT22;11958;50.836;4.438;2022-08-21T09:32:21;22.30;51.90
23560;DHT22;11958;50.836;4.438;2022-08-21T09:37:59;22.50;51.70
23560;DHT22;11958;50.836;4.438;2022-08-21T09:40:47;22.80;50.80
23560;DHT22;11958;50.836;4.438;2022-08-21T09:43:22;22.90;50.90
23560;DHT22;11958;50.836;4.438;2022-08-21T09:46:05;23.00;49.90
23560;DHT22;11958;50.836;4.438;2022-08-21T09:48:46;23.10;49.80
23560;DHT22;11958;50.836;4.438;2022-08-21T09:51:20;23.50;48.00
23560;DHT22;11958;50.836;4.438;2022-08-21T09:54:11;23.50;48.60
23560;DHT22;11958;50.836;4.438;2022-08-21T09:56:56;23.80;47.50
23560;DHT22;11958;50.836;4.438;2022-08-21T09:59:47;23.80;46.90
23560;DHT22;11958;50.836;4.438;2022-08-21T10:05:23;23.20;47.80
23560;DHT22;11958;50.836;4.438;2022-08-21T10:07:52;22.90;48.30
23560;DHT22;11958;50.836;4.438;2022-08-21T10:10:22;23.10;47.40
23560;DHT22;11958;50.836;4.438;2022-08-21T10:18:51;22.80;48.10
23560;DHT22;11958;50.836;4.438;2022-08-21T10:24:31;22.80;49.60
23560;DHT22;11958;50.836;4.438;2022-08-21T10:35:37;23.90;45.70
23560;DHT22;11958;50.836;4.438;2022-08-21T10:38:31;23.80;45.60
23560;DHT22;11958;50.836;4.438;2022-08-21T10:55:44;24.10;44.60
23560;DHT22;11958;50.836;4.438;2022-08-21T10:58:34;24.30;43.50
23560;DHT22;11958;50.836;4.438;2022-08-21T11:01:26;24.80;43.70
23560;DHT22;11958;50.836;4.438;2022-08-21T11:05:07;25.00;42.80
23560;DHT22;11958;50.836;4.438;2022-08-21T11:07:32;25.00;43.00
23560;DHT22;11958;50.836;4.438;2022-08-21T11:10:31;24.90;42.70
23560;DHT22;11958;50.836;4.438;2022-08-21T11:13:39;25.10;42.50
23560;DHT22;11958;50.836;4.438;2022-08-21T11:19:17;24.90;43.70
23560;DHT22;11958;50.836;4.438;2022-08-21T11:22:26;24.60;43.30
23560;DHT22;11958;50.836;4.438;2022-08-21T11:25:03;24.90;44.40
23560;DHT22;11958;50.836;4.438;2022-08-21T11:27:42;25.00;44.00
23560;DHT22;11958;50.836;4.438;2022-08-21T11:30:12;24.60;42.70
23560;DHT22;11958;50.836;4.438;2022-08-21T11:35:47;24.60;44.90
23560;DHT22;11958;50.836;4.438;2022-08-21T11:38:39;24.40;43.60
23560;DHT22;11958;50.836;4.438;2022-08-21T11:47:27;24.50;45.60
23560;DHT22;11958;50.836;4.438;2022-08-21T11:50:25;24.30;44.90
23560;DHT22;11958;50.836;4.438;2022-08-21T11:53:12;24.00;44.80
23560;DHT22;11958;50.836;4.438;2022-08-21T11:58:39;24.90;41.70
23560;DHT22;11958;50.836;4.438;2022-08-21T12:01:34;25.00;41.10
23560;DHT22;11958;50.836;4.438;2022-08-21T12:04:22;25.40;41.30
23560;DHT22;11958;50.836;4.438;2022-08-21T12:06:53;25.00;41.10
23560;DHT22;11958;50.836;4.438;2022-08-21T12:09:32;25.10;42.30
23560;DHT22;11958;50.836;4.438;2022-08-21T12:14:50;26.20;38.20
23560;DHT22;11958;50.836;4.438;2022-08-21T12:17:21;26.70;37.20
23560;DHT22;11958;50.836;4.438;2022-08-21T12:22:54;28.90;34.70
23560;DHT22;11958;50.836;4.438;2022-08-21T12:25:40;30.70;29.80
23560;DHT22;11958;50.836;4.438;2022-08-21T12:28:07;32.50;27.10
23560;DHT22;11958;50.836;4.438;2022-08-21T12:30:44;33.20;25.10
23560;DHT22;11958;50.836;4.438;2022-08-21T12:33:34;32.90;25.40
23560;DHT22;11958;50.836;4.438;2022-08-21T12:36:17;30.60;29.30
23560;DHT22;11958;50.836;4.438;2022-08-21T12:39:04;29.40;30.90
23560;DHT22;11958;50.836;4.438;2022-08-21T12:41:53;29.20;31.00
23560;DHT22;11958;50.836;4.438;2022-08-21T12:44:28;28.70;31.60
23560;DHT22;11958;50.836;4.438;2022-08-21T12:47:03;28.50;31.70
23560;DHT22;11958;50.836;4.438;2022-08-21T12:49:35;28.80;32.60
23560;DHT22;11958;50.836;4.438;2022-08-21T12:55:15;28.30;31.80
23560;DHT22;11958;50.836;4.438;2022-08-21T12:57:50;27.30;33.30
23560;DHT22;11958;50.836;4.438;2022-08-21T13:00:22;27.10;33.50
23560;DHT22;11958;50.836;4.438;2022-08-21T13:02:49;27.30;33.40
23560;DHT22;11958;50.836;4.438;2022-08-21T13:05:33;27.00;34.90
23560;DHT22;11958;50.836;4.438;2022-08-21T13:08:21;27.50;34.50
23560;DHT22;11958;50.836;4.438;2022-08-21T13:10:56;28.20;33.00
23560;DHT22;11958;50.836;4.438;2022-08-21T13:13:26;28.90;30.80
23560;DHT22;11958;50.836;4.438;2022-08-21T13:15:58;29.40;30.20
23560;DHT22;11958;50.836;4.438;2022-08-21T13:18:29;30.20;27.50
23560;DHT22;11958;50.836;4.438;2022-08-21T13:21:07;29.60;29.40
23560;DHT22;11958;50.836;4.438;2022-08-21T13:23:33;29.60;27.60
23560;DHT22;11958;50.836;4.438;2022-08-21T13:25:59;29.30;28.40
23560;DHT22;11958;50.836;4.438;2022-08-21T13:28:35;29.60;28.80
23560;DHT22;11958;50.836;4.438;2022-08-21T13:31:07;29.30;28.20
23560;DHT22;11958;50.836;4.438;2022-08-21T13:33:34;28.50;30.50
23560;DHT22;11958;50.836;4.438;2022-08-21T13:38:29;27.10;32.20
23560;DHT22;11958;50.836;4.438;2022-08-21T13:40:57;27.10;32.60
23560;DHT22;11958;50.836;4.438;2022-08-21T13:43:34;26.60;32.90
23560;DHT22;11958;50.836;4.438;2022-08-21T13:46:13;26.70;34.10
23560;DHT22;11958;50.836;4.438;2022-08-21T13:48:45;26.50;33.80
23560;DHT22;11958;50.836;4.438;2022-08-21T13:51:10;26.20;34.40
23560;DHT22;11958;50.836;4.438;2022-08-21T13:53:47;26.30;37.00
23560;DHT22;11958;50.836;4.438;2022-08-21T13:58:52;25.70;37.00
23560;DHT22;11958;50.836;4.438;2022-08-21T14:01:23;26.10;36.60
23560;DHT22;11958;50.836;4.438;2022-08-21T14:03:52;26.00;36.00
23560;DHT22;11958;50.836;4.438;2022-08-21T14:06:22;26.20;35.80
23560;DHT22;11958;50.836;4.438;2022-08-21T14:08:56;26.00;37.10
23560;DHT22;11958;50.836;4.438;2022-08-21T14:11:24;25.90;37.00
23560;DHT22;11958;50.836;4.438;2022-08-21T14:13:57;26.20;34.80
23560;DHT22;11958;50.836;4.438;2022-08-21T14:16:26;26.40;33.50
23560;DHT22;11958;50.836;4.438;2022-08-21T14:21:39;26.70;35.00
23560;DHT22;11958;50.836;4.438;2022-08-21T14:24:10;26.20;36.60
23560;DHT22;11958;50.836;4.438;2022-08-21T14:26:51;26.20;36.30
23560;DHT22;11958;50.836;4.438;2022-08-21T14:29:19;26.40;36.70
23560;DHT22;11958;50.836;4.438;2022-08-21T14:31:59;25.60;36.40
23560;DHT22;11958;50.836;4.438;2022-08-21T14:34:27;24.80;39.70
23560;DHT22;11958;50.836;4.438;2022-08-21T14:36:54;24.80;38.00
23560;DHT22;11958;50.836;4.438;2022-08-21T14:39:20;24.80;38.60
23560;DHT22;11958;50.836;4.438;2022-08-21T14:41:46;25.00;38.40
23560;DHT22;11958;50.836;4.438;2022-08-21T14:44:30;25.30;38.90
23560;DHT22;11958;50.836;4.438;2022-08-21T14:46:58;26.10;36.50
23560;DHT22;11958;50.836;4.438;2022-08-21T14:49:27;27.60;33.40
23560;DHT22;11958;50.836;4.438;2022-08-21T14:51:56;28.90;30.60
23560;DHT22;11958;50.836;4.438;2022-08-21T14:54:30;29.40;29.10
23560;DHT22;11958;50.836;4.438;2022-08-21T14:57:04;29.40;30.00
23560;DHT22;11958;50.836;4.438;2022-08-21T14:59:30;28.90;30.40
23560;DHT22;11958;50.836;4.438;2022-08-21T15:02:10;27.80;32.90
23560;DHT22;11958;50.836;4.438;2022-08-21T15:04:36;27.90;33.70
23560;DHT22;11958;50.836;4.438;2022-08-21T15:07:01;28.00;33.10
23560;DHT22;11958;50.836;4.438;2022-08-21T15:09:27;27.50;34.60
23560;DHT22;11958;50.836;4.438;2022-08-21T15:11:56;27.20;35.30
23560;DHT22;11958;50.836;4.438;2022-08-21T15:14:30;26.60;36.30
23560;DHT22;11958;50.836;4.438;2022-08-21T15:17:06;26.60;36.10
23560;DHT22;11958;50.836;4.438;2022-08-21T15:19:37;27.00;35.40
23560;DHT22;11958;50.836;4.438;2022-08-21T15:22:03;26.80;35.90
23560;DHT22;11958;50.836;4.438;2022-08-21T15:24:29;26.60;34.70
23560;DHT22;11958;50.836;4.438;2022-08-21T15:26:56;26.20;36.80
23560;DHT22;11958;50.836;4.438;2022-08-21T15:29:27;26.00;37.50
23560;DHT22;11958;50.836;4.438;2022-08-21T15:31:58;26.30;38.80
23560;DHT22;11958;50.836;4.438;2022-08-21T15:34:26;26.50;35.60
23560;DHT22;11958;50.836;4.438;2022-08-21T15:36:59;26.50;34.90
23560;DHT22;11958;50.836;4.438;2022-08-21T15:39:26;26.50;35.00
23560;DHT22;11958;50.836;4.438;2022-08-21T15:41:52;26.40;35.60
23560;DHT22;11958;50.836;4.438;2022-08-21T15:44:18;26.20;37.60
23560;DHT22;11958;50.836;4.438;2022-08-21T15:46:44;25.90;38.40
23560;DHT22;11958;50.836;4.438;2022-08-21T15:49:11;25.80;37.30
23560;DHT22;11958;50.836;4.438;2022-08-21T15:51:41;25.90;39.70
23560;DHT22;11958;50.836;4.438;2022-08-21T15:54:12;25.90;38.80
23560;DHT22;11958;50.836;4.438;2022-08-21T15:56:46;25.40;39.40
23560;DHT22;11958;50.836;4.438;2022-08-21T15:59:19;25.20;39.10
23560;DHT22;11958;50.836;4.438;2022-08-21T16:01:48;25.20;39.60
23560;DHT22;11958;50.836;4.438;2022-08-21T16:04:26;25.40;38.80
23560;DHT22;11958;50.836;4.438;2022-08-21T16:06:53;25.30;39.60
23560;DHT22;11958;50.836;4.438;2022-08-21T16:09:19;25.10;39.10
23560;DHT22;11958;50.836;4.438;2022-08-21T16:11:45;25.50;37.60
23560;DHT22;11958;50.836;4.438;2022-08-21T16:14:18;25.60;38.80
23560;DHT22;11958;50.836;4.438;2022-08-21T16:16:49;25.50;38.60
23560;DHT22;11958;50.836;4.438;2022-08-21T16:19:16;25.10;39.30
23560;DHT22;11958;50.836;4.438;2022-08-21T16:21:41;25.20;38.30
23560;DHT22;11958;50.836;4.438;2022-08-21T16:24:16;25.00;38.60
23560;DHT22;11958;50.836;4.438;2022-08-21T16:26:42;25.00;39.90
23560;DHT22;11958;50.836;4.438;2022-08-21T16:29:08;24.70;41.10
23560;DHT22;11958;50.836;4.438;2022-08-21T16:31:33;24.90;41.20
23560;DHT22;11958;50.836;4.438;2022-08-21T16:34:05;24.70;41.80
23560;DHT22;11958;50.836;4.438;2022-08-21T16:36:31;24.90;41.10
23560;DHT22;11958;50.836;4.438;2022-08-21T16:39:00;25.10;41.00
23560;DHT22;11958;50.836;4.438;2022-08-21T16:41:30;24.90;40.30
23560;DHT22;11958;50.836;4.438;2022-08-21T16:44:07;25.00;40.30
23560;DHT22;11958;50.836;4.438;2022-08-21T16:46:36;24.90;40.10
23560;DHT22;11958;50.836;4.438;2022-08-21T16:49:06;24.80;40.40
23560;DHT22;11958;50.836;4.438;2022-08-21T16:51:36;24.70;39.70
23560;DHT22;11958;50.836;4.438;2022-08-21T16:54:04;25.00;39.30
23560;DHT22;11958;50.836;4.438;2022-08-21T16:56:33;25.00;39.40
23560;DHT22;11958;50.836;4.438;2022-08-21T16:58:59;24.80;39.60
23560;DHT22;11958;50.836;4.438;2022-08-21T17:01:34;24.50;39.90
23560;DHT22;11958;50.836;4.438;2022-08-21T17:04:01;24.30;41.00
23560;DHT22;11958;50.836;4.438;2022-08-21T17:06:29;24.70;41.00
23560;DHT22;11958;50.836;4.438;2022-08-21T17:09:10;24.80;41.60
23560;DHT22;11958;50.836;4.438;2022-08-21T17:11:39;24.50;42.30